Dows, Iowa
Current Conditions -  °F | °C
As of 12:30 PM on Sunday 23 Nov 2014 (Local Time) from KCAV Reporting Station
Haze Haze  
Wind Chill: 52°   Ceiling: 900
Heat Index: 52°   Visibility: 5mi
Dew Point: 52°   Wind: 7mph
Humidity: 100%   Direction: 220°SW
Pressure: 29.4"   Gusts: NA
Location:  42.66°N, 93.5°W
Report Text: KCAV 231830Z AUTO 22006KT 5SM BR SCT004 OVC009 11/11 A2940 RMK AO2
Loading
Personal Weather Stations






























Interactive Weather Map New forecast layout! Learn more

10-Day Weather Forecast

Advertisements
Track Severe Weather on mobile